createdAt,value
2019-01-19T00:01:00.632Z,27.77
2019-01-19T00:03:51.108Z,27.66
2019-01-19T00:06:30.973Z,28.32
2019-01-19T00:09:01.932Z,27.92
2019-01-19T00:11:36.320Z,27.99
2019-01-19T00:14:13.866Z,27.90
2019-01-19T00:16:48.158Z,27.94
2019-01-19T00:19:45.679Z,28.02
2019-01-19T00:22:39.277Z,28.54
2019-01-19T00:25:39.530Z,28.47
2019-01-19T00:28:11.898Z,28.18
2019-01-19T00:30:48.876Z,28.37
2019-01-19T00:33:25.281Z,28.18
2019-01-19T00:36:20.643Z,28.19
2019-01-19T00:39:06.969Z,28.13
2019-01-19T00:41:53.534Z,28.37
2019-01-19T00:44:34.005Z,28.73
2019-01-19T00:47:08.363Z,28.85
2019-01-19T00:49:38.538Z,28.64
2019-01-19T00:52:09.995Z,28.60
2019-01-19T00:54:41.498Z,28.67
2019-01-19T00:57:12.974Z,28.49
2019-01-19T00:59:41.432Z,28.47
2019-01-19T01:02:24.582Z,28.58
2019-01-19T01:04:56.059Z,28.55
2019-01-19T01:07:41.944Z,28.46
2019-01-19T01:10:37.821Z,28.50
2019-01-19T01:13:25.770Z,28.45
2019-01-19T01:16:06.029Z,28.40
2019-01-19T01:18:46.631Z,28.40
2019-01-19T01:21:33.391Z,28.36
2019-01-19T01:24:07.910Z,28.38
2019-01-19T01:26:51.654Z,28.35
2019-01-19T01:29:39.509Z,28.33
2019-01-19T01:32:33.515Z,28.30
2019-01-19T01:35:17.109Z,28.31
2019-01-19T01:37:51.329Z,28.27
2019-01-19T01:40:25.773Z,28.24
2019-01-19T01:43:13.757Z,28.25
2019-01-19T01:45:57.267Z,28.23
2019-01-19T01:48:45.223Z,28.22
2019-01-19T01:51:28.716Z,28.23
2019-01-19T01:54:00.203Z,28.19
2019-01-19T01:56:28.431Z,28.16
2019-01-19T01:58:59.885Z,28.19
2019-01-19T02:01:40.077Z,28.19
2019-01-19T02:04:26.731Z,28.15
2019-01-19T02:07:13.291Z,28.17
2019-01-19T02:09:50.286Z,28.14
2019-01-19T02:12:39.317Z,28.12
2019-01-19T02:15:19.375Z,28.10
2019-01-19T02:18:05.917Z,28.18
2019-01-19T02:20:49.371Z,28.14
2019-01-19T02:23:20.832Z,28.13
2019-01-19T02:26:13.163Z,28.08
2019-01-19T02:28:47.379Z,28.11
2019-01-19T02:31:33.201Z,28.16
2019-01-19T02:34:13.783Z,28.11
2019-01-19T02:36:50.983Z,28.12
2019-01-19T02:39:42.135Z,28.10
2019-01-19T02:42:19.308Z,28.10
2019-01-19T02:44:56.625Z,28.07
2019-01-19T02:47:28.107Z,28.07
2019-01-19T02:50:05.407Z,28.05
2019-01-19T02:52:42.431Z,28.07
2019-01-19T02:55:32.114Z,28.11
2019-01-19T02:58:23.292Z,28.06
2019-01-19T03:01:29.763Z,28.07
2019-01-19T03:04:01.295Z,28.04
2019-01-19T03:06:54.875Z,28.14
2019-01-19T03:09:38.261Z,28.08
2019-01-19T03:12:18.501Z,28.04
2019-01-19T03:17:55.835Z,28.07
2019-01-19T03:20:42.270Z,28.00
2019-01-19T03:23:16.435Z,28.04
2019-01-19T03:26:00.045Z,28.03
2019-01-19T03:28:46.814Z,28.00
2019-01-19T03:31:24.100Z,27.94
2019-01-19T03:34:11.847Z,27.90
2019-01-19T03:37:01.561Z,27.94
2019-01-19T03:39:36.171Z,27.97
2019-01-19T03:42:16.502Z,27.93
2019-01-19T03:44:59.935Z,27.87
2019-01-19T03:47:34.377Z,27.92
2019-01-19T03:50:14.593Z,27.95
2019-01-19T03:52:48.895Z,27.94
2019-01-19T03:55:23.169Z,27.94
2019-01-19T03:58:11.204Z,27.97
2019-01-19T04:00:45.259Z,27.97
2019-01-19T04:03:28.299Z,27.97
2019-01-19T04:06:02.436Z,27.98
2019-01-19T04:08:53.289Z,27.98
2019-01-19T04:11:49.170Z,27.95
2019-01-19T04:14:38.025Z,27.95
2019-01-19T04:17:25.957Z,27.96
2019-01-19T04:20:00.560Z,27.98
2019-01-19T04:22:31.779Z,27.98
2019-01-19T04:25:03.237Z,27.88
2019-01-19T04:27:31.468Z,27.88
2019-01-19T04:29:59.695Z,27.84
2019-01-19T04:32:27.911Z,27.75
2019-01-19T04:34:56.145Z,27.74
2019-01-19T04:37:24.337Z,27.81
2019-01-19T04:39:52.549Z,27.88
2019-01-19T04:42:20.937Z,27.73
2019-01-19T04:44:49.222Z,27.90
2019-01-19T04:47:17.442Z,27.75
2019-01-19T04:49:45.656Z,27.76
2019-01-19T04:52:13.875Z,27.87
2019-01-19T04:54:42.064Z,27.76
2019-01-19T04:57:10.289Z,27.77
2019-01-19T04:59:38.501Z,27.83
2019-01-19T05:02:06.712Z,27.84
2019-01-19T05:04:34.931Z,27.85
2019-01-19T05:07:03.154Z,27.76
2019-01-19T05:09:31.355Z,27.83
2019-01-19T05:11:59.581Z,27.82
2019-01-19T05:14:27.824Z,27.81
2019-01-19T05:16:56.052Z,27.85
2019-01-19T05:19:24.289Z,27.78
2019-01-19T05:21:52.511Z,27.81
2019-01-19T05:24:20.715Z,27.85
2019-01-19T05:26:48.933Z,27.74
2019-01-19T05:29:17.118Z,27.85
2019-01-19T05:31:45.350Z,27.93
2019-01-19T05:34:13.561Z,27.85
2019-01-19T05:36:41.780Z,27.79
2019-01-19T05:39:10.010Z,27.68
2019-01-19T05:41:38.202Z,27.81
2019-01-19T05:44:06.394Z,27.80
2019-01-19T05:46:34.613Z,27.85
2019-01-19T05:49:02.827Z,27.68
2019-01-19T05:51:31.032Z,27.67
2019-01-19T05:53:59.233Z,27.75
2019-01-19T05:56:27.458Z,27.78
2019-01-19T05:58:55.688Z,27.67
2019-01-19T06:01:24.760Z,27.85
2019-01-19T06:03:52.987Z,27.79
2019-01-19T06:06:21.453Z,27.90
2019-01-19T06:08:49.650Z,27.82
2019-01-19T06:11:17.866Z,27.75
2019-01-19T06:13:46.058Z,27.76
2019-01-19T06:16:14.267Z,27.73
2019-01-19T06:18:42.845Z,27.79
2019-01-19T06:21:11.341Z,27.89
2019-01-19T06:23:39.520Z,27.87
2019-01-19T06:26:07.731Z,27.67
2019-01-19T06:28:35.941Z,27.90
2019-01-19T06:31:04.168Z,27.85
2019-01-19T06:33:32.365Z,27.73
2019-01-19T06:36:00.593Z,27.70
2019-01-19T06:38:28.823Z,27.69
2019-01-19T06:40:57.045Z,27.70
2019-01-19T06:43:25.244Z,27.65
2019-01-19T06:45:53.460Z,27.81
2019-01-19T06:48:21.698Z,27.71
2019-01-19T06:50:50.102Z,27.85
2019-01-19T06:53:18.315Z,27.80
2019-01-19T06:55:46.543Z,27.58
2019-01-19T06:58:14.748Z,27.73
2019-01-19T07:00:42.972Z,27.83
2019-01-19T07:03:11.173Z,27.60
2019-01-19T07:05:39.418Z,27.81
2019-01-19T07:08:07.616Z,27.75
2019-01-19T07:10:35.807Z,27.84
2019-01-19T07:13:04.040Z,27.72
2019-01-19T07:15:32.276Z,27.75
2019-01-19T07:18:00.504Z,27.84
2019-01-19T07:20:30.967Z,27.84
2019-01-19T07:22:59.448Z,27.84
2019-01-19T07:25:27.676Z,27.82
2019-01-19T07:27:55.906Z,27.71
2019-01-19T07:30:24.124Z,27.84
2019-01-19T07:32:52.348Z,27.83
2019-01-19T07:35:20.562Z,27.87
2019-01-19T07:37:48.794Z,27.81
2019-01-19T07:40:18.238Z,27.84
2019-01-19T07:42:48.792Z,27.80
2019-01-19T07:45:17.028Z,27.78
2019-01-19T07:47:45.715Z,27.80
2019-01-19T07:50:16.542Z,27.75
2019-01-19T07:52:44.740Z,27.58
2019-01-19T07:55:14.981Z,27.74
2019-01-19T07:57:43.214Z,27.66
2019-01-19T08:00:32.164Z,27.69
2019-01-19T08:03:00.414Z,27.76
2019-01-19T08:05:28.606Z,27.81
2019-01-19T08:07:56.791Z,27.85
2019-01-19T08:10:25.006Z,27.83
2019-01-19T08:12:53.224Z,27.78
2019-01-19T08:15:23.754Z,27.79
2019-01-19T08:17:51.985Z,27.86
2019-01-19T08:20:20.198Z,27.53
2019-01-19T08:22:48.421Z,27.86
2019-01-19T08:25:16.653Z,27.96
2019-01-19T08:27:44.876Z,27.87
2019-01-19T08:30:19.322Z,27.99
2019-01-19T08:32:47.737Z,27.97
2019-01-19T08:35:18.449Z,27.96
2019-01-19T08:37:47.363Z,27.99
2019-01-19T08:40:18.498Z,28.03
2019-01-19T08:42:48.349Z,28.02
2019-01-19T08:45:17.812Z,27.98
2019-01-19T08:47:46.022Z,28.00
2019-01-19T08:50:14.238Z,28.01
2019-01-19T08:52:42.447Z,27.50
2019-01-19T08:55:10.677Z,28.04
2019-01-19T08:57:38.896Z,27.90
2019-01-19T09:00:10.447Z,28.08
2019-01-19T09:02:38.646Z,28.41
2019-01-19T09:05:09.209Z,27.57
2019-01-19T09:07:37.424Z,27.73
2019-01-19T09:10:09.131Z,26.01
2019-01-19T09:12:37.344Z,26.07
2019-01-19T09:15:08.794Z,26.44
2019-01-19T09:17:37.032Z,26.70
2019-01-19T09:20:08.773Z,26.98
2019-01-19T09:22:36.974Z,26.96
2019-01-19T09:25:08.033Z,27.40
2019-01-19T09:27:36.240Z,27.27
2019-01-19T09:30:10.448Z,27.28
2019-01-19T09:32:38.737Z,27.17
2019-01-19T09:35:09.523Z,27.13
2019-01-19T09:37:40.889Z,27.38
2019-01-19T09:40:11.218Z,27.65
2019-01-19T09:42:39.419Z,27.80
2019-01-19T09:45:10.279Z,27.85
2019-01-19T09:47:38.479Z,28.15
2019-01-19T09:50:12.592Z,28.53
2019-01-19T09:52:40.788Z,28.10
2019-01-19T09:55:08.995Z,28.59
2019-01-19T09:57:37.224Z,28.41
2019-01-19T10:00:14.064Z,28.36
2019-01-19T10:02:42.300Z,28.33
2019-01-19T10:05:22.744Z,28.25
2019-01-19T10:07:51.059Z,28.16
2019-01-19T10:10:19.329Z,28.08
2019-01-19T10:12:47.529Z,28.01
2019-01-19T10:15:22.442Z,27.92
2019-01-19T10:17:50.686Z,27.89
2019-01-19T10:20:25.217Z,27.86
2019-01-19T10:22:53.428Z,28.11
2019-01-19T10:25:21.644Z,28.07
2019-01-19T10:27:49.870Z,28.37
2019-01-19T10:30:23.530Z,28.07
2019-01-19T10:32:51.764Z,28.08
2019-01-19T10:35:19.970Z,28.25
2019-01-19T10:37:48.199Z,28.31
2019-01-19T10:40:17.838Z,28.20
2019-01-19T10:42:46.069Z,28.17
2019-01-19T10:45:17.283Z,28.24
2019-01-19T10:47:45.520Z,28.46
2019-01-19T10:50:17.939Z,28.61
2019-01-19T10:52:46.705Z,28.74
2019-01-19T10:55:17.392Z,28.72
2019-01-19T10:57:45.671Z,28.87
2019-01-19T11:00:19.824Z,28.74
2019-01-19T11:02:48.043Z,29.33
2019-01-19T11:05:17.910Z,29.46
2019-01-19T11:07:47.800Z,29.67
2019-01-19T11:10:18.440Z,30.33
2019-01-19T11:12:46.679Z,29.75
2019-01-19T11:15:16.629Z,29.74
2019-01-19T11:17:44.863Z,29.98
2019-01-19T11:20:30.633Z,30.24
2019-01-19T11:23:02.081Z,30.10
2019-01-19T11:25:30.647Z,28.88
2019-01-19T11:27:58.851Z,28.86
2019-01-19T11:30:31.689Z,28.54
2019-01-19T11:32:59.947Z,27.93
2019-01-19T11:35:28.153Z,27.93
2019-01-19T11:37:56.415Z,28.00
2019-01-19T11:40:33.161Z,28.23
2019-01-19T11:43:01.364Z,28.11
2019-01-19T11:45:29.597Z,28.63
2019-01-19T11:47:57.801Z,28.44
2019-01-19T11:50:26.030Z,28.24
2019-01-19T11:52:54.231Z,28.00
2019-01-19T11:55:22.541Z,27.46
2019-01-19T11:57:56.349Z,27.37
2019-01-19T12:00:29.786Z,27.40
2019-01-19T12:02:57.996Z,27.40
2019-01-19T12:05:26.343Z,27.02
2019-01-19T12:07:54.572Z,26.85
2019-01-19T12:10:25.495Z,26.55
2019-01-19T12:12:53.735Z,26.54
2019-01-19T12:15:21.941Z,26.80
2019-01-19T12:17:50.176Z,26.63
2019-01-19T12:20:26.862Z,26.22
2019-01-19T12:22:55.139Z,24.12
2019-01-19T12:25:24.690Z,22.99
2019-01-19T12:27:52.919Z,23.88
2019-01-19T12:30:23.373Z,24.29
2019-01-19T12:32:51.580Z,24.19
2019-01-19T12:35:19.824Z,24.13
2019-01-19T12:37:48.045Z,24.00
2019-01-19T12:40:18.487Z,24.41
2019-01-19T12:42:47.760Z,24.66
2019-01-19T12:45:22.597Z,24.71
2019-01-19T12:47:50.804Z,24.37
2019-01-19T12:50:21.677Z,24.77
2019-01-19T12:52:49.918Z,22.83
2019-01-19T12:55:18.107Z,22.78
2019-01-19T12:57:46.313Z,22.61
2019-01-19T13:00:17.263Z,22.62
2019-01-19T13:02:45.487Z,22.55
2019-01-19T13:05:16.966Z,22.85
2019-01-19T13:07:45.938Z,22.63
2019-01-19T13:10:17.403Z,22.59
2019-01-19T13:12:45.696Z,22.60
2019-01-19T13:15:28.958Z,22.85
2019-01-19T13:18:00.445Z,22.70
2019-01-19T13:21:00.786Z,22.77
2019-01-19T13:23:44.948Z,22.53
2019-01-19T13:26:23.462Z,23.21
2019-01-19T13:29:00.803Z,23.55
2019-01-19T13:31:41.089Z,24.06
2019-01-19T13:34:27.570Z,23.63
2019-01-19T13:37:18.744Z,23.13
2019-01-19T13:39:50.202Z,23.14
2019-01-19T13:42:24.594Z,23.06
2019-01-19T13:45:11.082Z,23.11
2019-01-19T13:47:45.270Z,22.97
2019-01-19T13:50:25.938Z,22.93
2019-01-19T13:53:19.950Z,22.87
2019-01-19T13:56:11.230Z,23.19
2019-01-19T13:58:48.427Z,22.94
2019-01-19T14:01:32.224Z,24.32
2019-01-19T14:04:03.690Z,24.82
2019-01-19T14:06:38.078Z,24.71
2019-01-19T14:09:26.146Z,25.55
2019-01-19T14:12:09.780Z,25.40
2019-01-19T14:14:56.514Z,25.56
2019-01-19T14:17:45.266Z,25.56
2019-01-19T14:20:28.048Z,25.69
2019-01-19T14:23:08.389Z,26.20
2019-01-19T14:26:05.466Z,26.29
2019-01-19T14:28:54.416Z,26.38
2019-01-19T14:32:01.168Z,25.86
2019-01-19T14:34:32.660Z,25.83
2019-01-19T14:37:16.005Z,25.56
2019-01-19T14:39:47.514Z,25.46
2019-01-19T14:42:34.400Z,25.94
2019-01-19T14:45:22.803Z,25.95
2019-01-19T14:48:02.965Z,26.68
2019-01-19T14:51:00.207Z,26.15
2019-01-19T14:53:31.712Z,26.52
2019-01-19T14:56:09.162Z,25.92
2019-01-19T14:58:43.116Z,26.12
2019-01-19T15:01:17.478Z,26.58
2019-01-19T15:04:03.998Z,26.20
2019-01-19T15:06:47.255Z,26.12
2019-01-19T15:09:21.418Z,26.17
2019-01-19T15:12:18.065Z,27.37
2019-01-19T15:14:58.976Z,26.88
2019-01-19T15:17:42.351Z,27.66
2019-01-19T15:20:19.393Z,27.20
2019-01-19T15:23:08.926Z,27.19
2019-01-19T15:25:46.262Z,27.31
2019-01-19T15:28:32.742Z,27.46
2019-01-19T15:31:10.140Z,27.27
2019-01-19T15:33:44.559Z,26.93
2019-01-19T15:36:31.199Z,26.74
2019-01-19T15:39:12.303Z,26.51
2019-01-19T15:42:08.209Z,26.23
2019-01-19T15:44:39.699Z,26.13
2019-01-19T15:47:19.929Z,25.91
2019-01-19T15:50:00.483Z,24.86
2019-01-19T15:52:47.038Z,25.33
2019-01-19T15:55:21.034Z,24.61
2019-01-19T15:58:04.476Z,25.47
2019-01-19T16:01:12.193Z,26.17
2019-01-19T16:03:49.269Z,26.22
2019-01-19T16:06:38.830Z,25.38
2019-01-19T16:09:18.354Z,26.22
2019-01-19T16:11:49.388Z,27.26
2019-01-19T16:14:23.775Z,28.74
2019-01-19T16:17:01.343Z,28.46
2019-01-19T16:19:51.004Z,27.59
2019-01-19T16:22:34.227Z,27.57
2019-01-19T16:25:14.947Z,26.96
2019-01-19T16:28:10.157Z,26.73
2019-01-19T16:31:04.025Z,26.35
2019-01-19T16:33:41.327Z,26.24
2019-01-19T16:36:18.491Z,26.22
2019-01-19T16:39:06.253Z,25.98
2019-01-19T16:41:40.728Z,26.52
2019-01-19T16:44:14.981Z,26.66
2019-01-19T16:47:12.073Z,26.97
2019-01-19T16:49:46.187Z,27.24
2019-01-19T16:52:26.454Z,27.04
2019-01-19T16:55:15.836Z,26.99
2019-01-19T16:57:50.686Z,27.48
2019-01-19T17:00:41.938Z,27.44
2019-01-19T17:03:25.485Z,27.49
2019-01-19T17:06:18.245Z,26.98
2019-01-19T17:08:52.323Z,26.47
2019-01-19T17:11:32.767Z,26.13
2019-01-19T17:14:22.342Z,26.12
2019-01-19T17:16:56.551Z,25.79
2019-01-19T17:19:28.029Z,25.79
2019-01-19T17:22:05.676Z,26.12
2019-01-19T17:24:57.641Z,25.99
2019-01-19T17:27:29.131Z,26.31
2019-01-19T17:30:16.938Z,26.65
2019-01-19T17:32:51.180Z,26.68
2019-01-19T17:35:25.136Z,26.09
2019-01-19T17:37:56.656Z,26.07
2019-01-19T17:40:46.245Z,26.57
2019-01-19T17:43:29.699Z,26.53
2019-01-19T17:46:15.187Z,27.53
2019-01-19T17:49:16.896Z,26.08
2019-01-19T17:51:53.848Z,26.33
2019-01-19T17:54:58.379Z,26.64
2019-01-19T17:57:35.499Z,26.67
2019-01-19T18:00:09.689Z,26.67
2019-01-19T18:02:41.183Z,26.21
2019-01-19T18:05:21.538Z,26.11
2019-01-19T18:08:18.669Z,26.80
2019-01-19T18:11:08.221Z,26.00
2019-01-19T18:13:54.800Z,26.44
2019-01-19T18:16:37.937Z,25.61
2019-01-19T18:19:18.305Z,25.18
2019-01-19T18:21:55.299Z,24.13
2019-01-19T18:24:48.139Z,24.76
2019-01-19T18:27:19.629Z,24.77
2019-01-19T18:30:10.437Z,24.13
2019-01-19T18:33:09.171Z,25.04
2019-01-19T18:35:52.617Z,25.29
2019-01-19T18:38:33.115Z,25.20
2019-01-19T18:41:10.989Z,25.23
2019-01-19T18:43:42.453Z,25.65
2019-01-19T18:46:39.054Z,25.16
2019-01-19T18:49:35.914Z,24.89
2019-01-19T18:52:12.966Z,25.25
2019-01-19T18:54:44.433Z,25.17
2019-01-19T18:57:31.038Z,24.34
2019-01-19T19:00:11.591Z,24.83
2019-01-19T19:02:51.927Z,24.93
2019-01-19T19:05:53.520Z,25.05
2019-01-19T19:08:36.745Z,25.12
2019-01-19T19:11:26.240Z,25.21
2019-01-19T19:14:03.510Z,24.90
2019-01-19T19:16:41.176Z,25.19
2019-01-19T19:19:12.600Z,25.13
2019-01-19T19:21:49.635Z,25.42
2019-01-19T19:24:33.002Z,25.27
2019-01-19T19:27:37.585Z,25.58
2019-01-19T19:30:11.920Z,25.04
2019-01-19T19:32:55.343Z,25.34
2019-01-19T19:35:46.405Z,24.78
2019-01-19T19:38:37.505Z,25.21
2019-01-19T19:41:24.473Z,25.24
2019-01-19T19:44:01.991Z,25.47
2019-01-19T19:46:36.556Z,25.24
2019-01-19T19:49:11.090Z,25.22
2019-01-19T19:51:55.165Z,24.94
2019-01-19T19:54:23.751Z,25.25
2019-01-19T19:56:52.227Z,25.15
2019-01-19T19:59:20.425Z,25.04
2019-01-19T20:01:48.644Z,25.27
2019-01-19T20:04:16.852Z,25.32
2019-01-19T20:06:45.085Z,25.37
2019-01-19T20:09:13.307Z,24.87
2019-01-19T20:11:41.682Z,24.53
2019-01-19T20:14:09.914Z,22.87
2019-01-19T20:16:38.105Z,23.95
2019-01-19T20:19:06.332Z,23.83
2019-01-19T20:21:34.559Z,24.00
2019-01-19T20:24:02.799Z,24.52
2019-01-19T20:26:30.986Z,24.58
2019-01-19T20:28:59.215Z,24.76
2019-01-19T20:31:27.410Z,24.75
2019-01-19T20:33:55.631Z,24.76
2019-01-19T20:36:23.879Z,24.76
2019-01-19T20:38:52.077Z,24.92
2019-01-19T20:41:20.264Z,25.07
2019-01-19T20:43:48.471Z,24.77
2019-01-19T20:46:16.719Z,24.75
2019-01-19T20:48:45.031Z,25.04
2019-01-19T20:51:13.358Z,25.11
2019-01-19T20:53:41.523Z,25.25
2019-01-19T20:56:09.727Z,25.37
2019-01-19T20:58:37.932Z,25.06
2019-01-19T21:01:06.153Z,25.15
2019-01-19T21:03:34.357Z,25.18
2019-01-19T21:06:02.593Z,25.15
2019-01-19T21:08:30.796Z,25.03
2019-01-19T21:10:59.025Z,25.02
2019-01-19T21:13:27.251Z,25.06
2019-01-19T21:15:55.454Z,25.25
2019-01-19T21:18:23.685Z,25.15
2019-01-19T21:20:51.880Z,25.31
2019-01-19T21:23:20.107Z,25.15
2019-01-19T21:25:48.306Z,25.14
2019-01-19T21:28:16.528Z,25.14
2019-01-19T21:30:44.728Z,25.23
2019-01-19T21:33:12.960Z,25.26
2019-01-19T21:35:41.174Z,25.43
2019-01-19T21:38:09.377Z,25.58
2019-01-19T21:40:39.189Z,25.22
2019-01-19T21:43:07.547Z,25.22
2019-01-19T21:45:35.800Z,25.27
2019-01-19T21:48:04.004Z,25.53
2019-01-19T21:50:32.234Z,25.26
2019-01-19T21:53:00.446Z,25.45
2019-01-19T21:55:28.654Z,25.37
2019-01-19T21:57:56.892Z,25.50
2019-01-19T22:00:25.106Z,25.45
2019-01-19T22:02:53.340Z,25.38
2019-01-19T22:05:21.540Z,25.42
2019-01-19T22:07:49.778Z,25.51
2019-01-19T22:10:22.918Z,25.45
2019-01-19T22:12:51.298Z,25.48
2019-01-19T22:15:19.681Z,25.25
2019-01-19T22:17:47.925Z,25.46
2019-01-19T22:20:17.577Z,25.46
2019-01-19T22:22:45.758Z,25.47
2019-01-19T22:25:14.156Z,25.34
2019-01-19T22:27:43.996Z,25.35
2019-01-19T22:30:20.826Z,25.34
2019-01-19T22:32:50.629Z,25.37
2019-01-19T22:35:18.827Z,25.19
2019-01-19T22:37:47.074Z,25.35
2019-01-19T22:40:17.300Z,25.34
2019-01-19T22:42:45.978Z,25.22
2019-01-19T22:45:16.619Z,25.27
2019-01-19T22:47:44.822Z,25.23
2019-01-19T22:50:15.055Z,25.18
2019-01-19T22:52:43.280Z,25.16
2019-01-19T22:55:12.333Z,25.10
2019-01-19T22:57:40.550Z,25.15
2019-01-19T23:00:40.442Z,25.08
2019-01-19T23:03:08.734Z,25.07
2019-01-19T23:05:36.938Z,24.97
2019-01-19T23:08:05.181Z,24.99
2019-01-19T23:10:33.386Z,24.99
2019-01-19T23:13:01.613Z,24.95
2019-01-19T23:15:29.837Z,24.92
2019-01-19T23:17:58.043Z,25.04
2019-01-19T23:20:26.253Z,24.98
2019-01-19T23:22:54.863Z,24.90
2019-01-19T23:25:23.056Z,24.91
2019-01-19T23:27:51.280Z,24.87
2019-01-19T23:30:19.492Z,24.90
2019-01-19T23:32:47.704Z,24.78
2019-01-19T23:35:15.927Z,24.82
2019-01-19T23:37:44.139Z,24.83
2019-01-19T23:40:13.469Z,24.83
2019-01-19T23:42:47.035Z,24.81
2019-01-19T23:45:11.641Z,24.80
2019-01-19T23:47:39.876Z,24.79
2019-01-19T23:50:11.156Z,24.87
2019-01-19T23:52:39.378Z,24.77
2019-01-19T23:55:07.578Z,24.75
2019-01-19T23:57:35.796Z,24.93
